sensor_id;sensor_type;location;lat;lon;timestamp;pressure;altitude;pressure_sealevel;temperature;humidity
32109;BME280;18624;50.042;8.436;2022-11-20T00:01:11;100109.63;;;2.45;100.00
32109;BME280;18624;50.042;8.436;2022-11-20T00:03:38;100098.78;;;2.45;100.00
32109;BME280;18624;50.042;8.436;2022-11-20T00:06:06;100101.13;;;2.43;100.00
32109;BME280;18624;50.042;8.436;2022-11-20T00:08:33;100089.50;;;2.39;100.00
32109;BME280;18624;50.042;8.436;2022-11-20T00:11:04;100087.53;;;2.36;100.00
32109;BME280;18624;50.042;8.436;2022-11-20T00:13:32;100086.78;;;2.36;100.00
32109;BME280;18624;50.042;8.436;2022-11-20T00:15:59;100089.88;;;2.38;100.00
32109;BME280;18624;50.042;8.436;2022-11-20T00:18:27;100087.59;;;2.43;100.00
32109;BME280;18624;50.042;8.436;2022-11-20T00:20:53;100094.53;;;2.41;100.00
32109;BME280;18624;50.042;8.436;2022-11-20T00:23:26;100088.31;;;2.37;100.00
32109;BME280;18624;50.042;8.436;2022-11-20T00:25:52;100096.06;;;2.35;100.00
32109;BME280;18624;50.042;8.436;2022-11-20T00:28:18;100085.22;;;2.31;100.00
32109;BME280;18624;50.042;8.436;2022-11-20T00:30:45;100077.84;;;2.28;100.00
32109;BME280;18624;50.042;8.436;2022-11-20T00:33:11;100072.41;;;2.21;100.00
32109;BME280;18624;50.042;8.436;2022-11-20T00:35:37;100074.72;;;2.19;100.00
32109;BME280;18624;50.042;8.436;2022-11-20T00:38:04;100081.66;;;2.16;100.00
32109;BME280;18624;50.042;8.436;2022-11-20T00:40:30;100086.69;;;2.18;100.00
32109;BME280;18624;50.042;8.436;2022-11-20T00:42:57;100085.13;;;2.20;100.00
32109;BME280;18624;50.042;8.436;2022-11-20T00:45:23;100089.38;;;2.14;100.00
32109;BME280;18624;50.042;8.436;2022-11-20T00:47:49;100080.84;;;2.09;100.00
32109;BME280;18624;50.042;8.436;2022-11-20T00:50:16;100037.78;;;1.78;100.00
32109;BME280;18624;50.042;8.436;2022-11-20T00:52:42;100072.31;;;2.07;100.00
32109;BME280;18624;50.042;8.436;2022-11-20T00:55:09;100070.78;;;2.09;100.00
32109;BME280;18624;50.042;8.436;2022-11-20T00:57:35;100073.09;;;2.07;100.00
32109;BME280;18624;50.042;8.436;2022-11-20T01:00:02;100022.72;;;1.74;100.00
32109;BME280;18624;50.042;8.436;2022-11-20T01:02:28;100065.34;;;2.02;100.00
32109;BME280;18624;50.042;8.436;2022-11-20T01:04:55;100071.94;;;2.05;100.00
32109;BME280;18624;50.042;8.436;2022-11-20T01:07:21;100069.22;;;2.05;100.00
32109;BME280;18624;50.042;8.436;2022-11-20T01:09:48;100076.19;;;2.06;100.00
32109;BME280;18624;50.042;8.436;2022-11-20T01:12:14;100081.59;;;2.06;100.00
32109;BME280;18624;50.042;8.436;2022-11-20T01:14:40;100061.09;;;2.01;100.00
32109;BME280;18624;50.042;8.436;2022-11-20T01:17:07;100078.91;;;2.09;100.00
32109;BME280;18624;50.042;8.436;2022-11-20T01:19:33;100074.69;;;2.12;100.00
32109;BME280;18624;50.042;8.436;2022-11-20T01:22:00;100080.88;;;2.12;100.00
32109;BME280;18624;50.042;8.436;2022-11-20T01:24:26;100078.97;;;2.16;100.00
32109;BME280;18624;50.042;8.436;2022-11-20T01:26:52;100077.78;;;2.14;100.00
32109;BME280;18624;50.042;8.436;2022-11-20T01:29:22;100074.63;;;2.05;100.00
32109;BME280;18624;50.042;8.436;2022-11-20T01:31:50;100069.22;;;2.05;100.00
32109;BME280;18624;50.042;8.436;2022-11-20T01:34:18;100070.41;;;2.11;100.00
32109;BME280;18624;50.042;8.436;2022-11-20T01:36:45;100075.06;;;2.14;100.00
32109;BME280;18624;50.042;8.436;2022-11-20T01:39:21;100083.13;;;2.07;100.00
32109;BME280;18624;50.042;8.436;2022-11-20T01:41:50;99979.66;;;1.44;100.00
32109;BME280;18624;50.042;8.436;2022-11-20T01:44:58;100080.44;;;2.10;100.00
32109;BME280;18624;50.042;8.436;2022-11-20T01:47:50;100075.44;;;2.09;100.00
32109;BME280;18624;50.042;8.436;2022-11-20T01:50:23;100065.75;;;2.04;100.00
32109;BME280;18624;50.042;8.436;2022-11-20T01:52:55;100064.56;;;2.01;100.00
32109;BME280;18624;50.042;8.436;2022-11-20T01:55:31;100058.78;;;1.99;100.00
32109;BME280;18624;50.042;8.436;2022-11-20T01:57:58;100061.84;;;1.94;100.00
32109;BME280;18624;50.042;8.436;2022-11-20T02:00:25;100059.56;;;2.00;100.00
32109;BME280;18624;50.042;8.436;2022-11-20T02:02:56;100058.41;;;2.05;100.00
32109;BME280;18624;50.042;8.436;2022-11-20T02:05:36;100066.56;;;2.08;100.00
32109;BME280;18624;50.042;8.436;2022-11-20T02:08:06;100069.66;;;2.14;100.00
32109;BME280;18624;50.042;8.436;2022-11-20T02:10:33;100061.19;;;2.19;100.00
32109;BME280;18624;50.042;8.436;2022-11-20T02:12:59;100051.56;;;2.21;100.00
32109;BME280;18624;50.042;8.436;2022-11-20T02:15:45;100052.69;;;2.20;100.00
32109;BME280;18624;50.042;8.436;2022-11-20T02:18:14;100046.91;;;2.22;100.00
32109;BME280;18624;50.042;8.436;2022-11-20T02:20:47;100025.59;;;2.10;100.00
32109;BME280;18624;50.042;8.436;2022-11-20T02:23:31;100042.59;;;2.03;100.00
32109;BME280;18624;50.042;8.436;2022-11-20T02:26:02;100035.19;;;1.96;100.00
32109;BME280;18624;50.042;8.436;2022-11-20T02:28:29;100040.59;;;1.96;100.00
32109;BME280;18624;50.042;8.436;2022-11-20T02:30:55;100041.00;;;2.02;100.00
32109;BME280;18624;50.042;8.436;2022-11-20T02:33:22;100036.81;;;2.08;100.00
32109;BME280;18624;50.042;8.436;2022-11-20T02:35:48;100044.53;;;2.10;100.00
32109;BME280;18624;50.042;8.436;2022-11-20T02:38:15;100045.72;;;2.12;100.00
32109;BME280;18624;50.042;8.436;2022-11-20T02:40:41;100029.81;;;2.07;100.00
32109;BME280;18624;50.042;8.436;2022-11-20T02:43:08;100043.81;;;2.16;100.00
32109;BME280;18624;50.042;8.436;2022-11-20T02:45:35;100043.75;;;2.09;100.00
32109;BME280;18624;50.042;8.436;2022-11-20T02:48:02;100039.53;;;2.12;100.00
32109;BME280;18624;50.042;8.436;2022-11-20T02:50:28;100038.41;;;2.16;100.00
32109;BME280;18624;50.042;8.436;2022-11-20T02:52:55;100021.72;;;2.03;100.00
32109;BME280;18624;50.042;8.436;2022-11-20T02:55:21;100026.06;;;2.22;100.00
32109;BME280;18624;50.042;8.436;2022-11-20T02:57:48;100018.66;;;2.16;100.00
32109;BME280;18624;50.042;8.436;2022-11-20T03:00:14;100026.44;;;2.21;100.00
32109;BME280;18624;50.042;8.436;2022-11-20T03:02:41;100029.91;;;2.18;100.00
32109;BME280;18624;50.042;8.436;2022-11-20T03:05:07;100045.38;;;2.21;100.00
32109;BME280;18624;50.042;8.436;2022-11-20T03:07:34;100046.16;;;2.21;100.00
32109;BME280;18624;50.042;8.436;2022-11-20T03:10:00;100046.16;;;2.28;100.00
32109;BME280;18624;50.042;8.436;2022-11-20T03:12:27;100048.50;;;2.30;100.00
32109;BME280;18624;50.042;8.436;2022-11-20T03:14:53;100045.03;;;2.33;100.00
32109;BME280;18624;50.042;8.436;2022-11-20T03:17:20;100043.47;;;2.28;100.00
32109;BME280;18624;50.042;8.436;2022-11-20T03:19:46;100044.22;;;2.29;100.00
32109;BME280;18624;50.042;8.436;2022-11-20T03:22:12;100040.38;;;2.30;100.00
32109;BME280;18624;50.042;8.436;2022-11-20T03:24:39;100038.03;;;2.28;100.00
32109;BME280;18624;50.042;8.436;2022-11-20T03:27:05;100023.38;;;2.29;100.00
32109;BME280;18624;50.042;8.436;2022-11-20T03:29:32;100028.78;;;2.29;100.00
32109;BME280;18624;50.042;8.436;2022-11-20T03:31:59;100041.94;;;2.31;100.00
32109;BME280;18624;50.042;8.436;2022-11-20T03:34:26;100050.84;;;2.35;100.00
32109;BME280;18624;50.042;8.436;2022-11-20T03:36:52;100037.69;;;2.37;100.00
32109;BME280;18624;50.042;8.436;2022-11-20T03:39:18;100035.78;;;2.41;100.00
32109;BME280;18624;50.042;8.436;2022-11-20T03:41:45;100026.16;;;2.44;100.00
32109;BME280;18624;50.042;8.436;2022-11-20T03:44:12;100005.63;;;2.36;100.00
32109;BME280;18624;50.042;8.436;2022-11-20T03:46:38;99999.09;;;2.44;100.00
32109;BME280;18624;50.042;8.436;2022-11-20T03:49:05;100001.38;;;2.31;100.00
32109;BME280;18624;50.042;8.436;2022-11-20T03:51:34;100038.50;;;2.45;100.00
32109;BME280;18624;50.042;8.436;2022-11-20T03:54:06;100036.59;;;2.49;100.00
32109;BME280;18624;50.042;8.436;2022-11-20T03:56:35;100035.06;;;2.48;100.00
32109;BME280;18624;50.042;8.436;2022-11-20T03:59:02;100033.50;;;2.50;100.00
32109;BME280;18624;50.042;8.436;2022-11-20T04:01:32;100027.69;;;2.48;100.00
32109;BME280;18624;50.042;8.436;2022-11-20T04:03:59;100023.44;;;2.47;100.00
32109;BME280;18624;50.042;8.436;2022-11-20T04:06:30;100024.22;;;2.44;100.00
32109;BME280;18624;50.042;8.436;2022-11-20T04:08:58;99975.03;;;2.14;100.00
32109;BME280;18624;50.042;8.436;2022-11-20T04:11:27;100023.81;;;2.39;100.00
32109;BME280;18624;50.042;8.436;2022-11-20T04:13:59;100012.22;;;2.42;100.00
32109;BME280;18624;50.042;8.436;2022-11-20T04:16:28;99992.09;;;2.32;100.00
32109;BME280;18624;50.042;8.436;2022-11-20T04:18:57;100006.00;;;2.38;100.00
32109;BME280;18624;50.042;8.436;2022-11-20T04:21:25;99971.94;;;2.19;100.00
32109;BME280;18624;50.042;8.436;2022-11-20T04:23:52;100002.94;;;2.36;100.00
32109;BME280;18624;50.042;8.436;2022-11-20T04:26:20;99995.97;;;2.31;100.00
32109;BME280;18624;50.042;8.436;2022-11-20T04:28:46;99953.75;;;2.05;100.00
32109;BME280;18624;50.042;8.436;2022-11-20T04:31:15;99997.13;;;2.30;100.00
32109;BME280;18624;50.042;8.436;2022-11-20T04:33:42;100000.97;;;2.33;100.00
32109;BME280;18624;50.042;8.436;2022-11-20T04:36:14;100005.22;;;2.34;100.00
32109;BME280;18624;50.042;8.436;2022-11-20T04:38:41;100003.31;;;2.38;100.00
32109;BME280;18624;50.042;8.436;2022-11-20T04:41:13;100000.25;;;2.39;100.00
32109;BME280;18624;50.042;8.436;2022-11-20T04:43:40;100016.81;;;2.38;100.00
32109;BME280;18624;50.042;8.436;2022-11-20T04:46:07;100031.13;;;2.38;100.00
32109;BME280;18624;50.042;8.436;2022-11-20T04:48:34;99973.84;;;2.11;100.00
32109;BME280;18624;50.042;8.436;2022-11-20T04:51:04;100017.63;;;2.42;100.00
32109;BME280;18624;50.042;8.436;2022-11-20T04:53:30;99973.50;;;2.13;100.00
32109;BME280;18624;50.042;8.436;2022-11-20T04:56:01;100012.97;;;2.42;100.00
32109;BME280;18624;50.042;8.436;2022-11-20T04:58:28;100016.06;;;2.41;100.00
32109;BME280;18624;50.042;8.436;2022-11-20T05:01:22;100015.69;;;2.42;100.00
32109;BME280;18624;50.042;8.436;2022-11-20T05:03:50;100017.25;;;2.43;100.00
32109;BME280;18624;50.042;8.436;2022-11-20T05:06:18;100012.63;;;2.44;100.00
32109;BME280;18624;50.042;8.436;2022-11-20T05:08:45;100012.22;;;2.45;100.00
32109;BME280;18624;50.042;8.436;2022-11-20T05:11:13;100002.19;;;2.46;100.00
32109;BME280;18624;50.042;8.436;2022-11-20T05:13:40;99995.63;;;2.43;100.00
32109;BME280;18624;50.042;8.436;2022-11-20T05:16:12;99996.00;;;2.45;100.00
32109;BME280;18624;50.042;8.436;2022-11-20T05:18:40;99994.03;;;2.42;100.00
32109;BME280;18624;50.042;8.436;2022-11-20T05:21:08;99990.56;;;2.42;100.00
32109;BME280;18624;50.042;8.436;2022-11-20T05:23:36;99968.94;;;2.35;100.00
32109;BME280;18624;50.042;8.436;2022-11-20T05:26:03;100002.56;;;2.41;100.00
32109;BME280;18624;50.042;8.436;2022-11-20T05:28:31;99980.09;;;2.33;100.00
32109;BME280;18624;50.042;8.436;2022-11-20T05:31:08;99997.53;;;2.43;100.00
32109;BME280;18624;50.042;8.436;2022-11-20T05:33:36;99995.59;;;2.47;100.00
32109;BME280;18624;50.042;8.436;2022-11-20T05:36:03;99983.59;;;2.30;100.00
32109;BME280;18624;50.042;8.436;2022-11-20T05:38:30;100005.66;;;2.46;100.00
32109;BME280;18624;50.042;8.436;2022-11-20T05:41:04;99993.31;;;2.49;100.00
32109;BME280;18624;50.042;8.436;2022-11-20T05:43:34;99992.53;;;2.52;100.00
32109;BME280;18624;50.042;8.436;2022-11-20T05:46:02;99999.13;;;2.58;100.00
32109;BME280;18624;50.042;8.436;2022-11-20T05:48:29;99993.72;;;2.62;100.00
32109;BME280;18624;50.042;8.436;2022-11-20T05:50:57;99994.09;;;2.60;100.00
32109;BME280;18624;50.042;8.436;2022-11-20T05:53:25;99979.00;;;2.52;100.00
32109;BME280;18624;50.042;8.436;2022-11-20T05:55:59;99991.03;;;2.62;100.00
32109;BME280;18624;50.042;8.436;2022-11-20T05:58:26;99992.16;;;2.61;100.00
32109;BME280;18624;50.042;8.436;2022-11-20T06:00:53;99997.19;;;2.62;100.00
32109;BME280;18624;50.042;8.436;2022-11-20T06:03:19;100012.28;;;2.63;100.00
32109;BME280;18624;50.042;8.436;2022-11-20T06:05:46;99992.16;;;2.61;100.00
32109;BME280;18624;50.042;8.436;2022-11-20T06:08:12;100002.97;;;2.61;100.00
32109;BME280;18624;50.042;8.436;2022-11-20T06:10:39;99987.91;;;2.63;100.00
32109;BME280;18624;50.042;8.436;2022-11-20T06:13:05;99986.75;;;2.64;100.00
32109;BME280;18624;50.042;8.436;2022-11-20T06:15:32;99985.59;;;2.62;100.00
32109;BME280;18624;50.042;8.436;2022-11-20T06:17:58;99987.91;;;2.56;100.00
32109;BME280;18624;50.042;8.436;2022-11-20T06:20:25;99987.53;;;2.58;100.00
32109;BME280;18624;50.042;8.436;2022-11-20T06:22:52;99988.69;;;2.60;100.00
32109;BME280;18624;50.042;8.436;2022-11-20T06:25:18;99989.06;;;2.48;100.00
32109;BME280;18624;50.042;8.436;2022-11-20T06:27:45;99990.97;;;2.47;100.00
32109;BME280;18624;50.042;8.436;2022-11-20T06:30:12;100000.63;;;2.52;100.00
32109;BME280;18624;50.042;8.436;2022-11-20T06:32:38;99975.16;;;2.53;100.00
32109;BME280;18624;50.042;8.436;2022-11-20T06:35:05;99979.78;;;2.52;100.00
32109;BME280;18624;50.042;8.436;2022-11-20T06:37:31;99976.66;;;2.40;100.00
32109;BME280;18624;50.042;8.436;2022-11-20T06:39:57;99978.19;;;2.37;100.00
32109;BME280;18624;50.042;8.436;2022-11-20T06:42:24;99956.53;;;2.23;100.00
32109;BME280;18624;50.042;8.436;2022-11-20T06:44:50;99977.03;;;2.31;100.00
32109;BME280;18624;50.042;8.436;2022-11-20T06:47:17;99980.09;;;2.33;100.00
32109;BME280;18624;50.042;8.436;2022-11-20T06:49:43;99994.41;;;2.34;100.00
32109;BME280;18624;50.042;8.436;2022-11-20T06:52:09;99985.94;;;2.39;100.00
32109;BME280;18624;50.042;8.436;2022-11-20T06:54:36;99990.97;;;2.44;100.00
32109;BME280;18624;50.042;8.436;2022-11-20T06:57:02;99985.19;;;2.49;100.00
32109;BME280;18624;50.042;8.436;2022-11-20T06:59:29;99983.66;;;2.48;100.00
32109;BME280;18624;50.042;8.436;2022-11-20T07:01:55;99993.28;;;2.42;100.00
32109;BME280;18624;50.042;8.436;2022-11-20T07:04:21;99999.47;;;2.42;100.00
32109;BME280;18624;50.042;8.436;2022-11-20T07:06:48;100001.00;;;2.47;100.00
32109;BME280;18624;50.042;8.436;2022-11-20T07:09:14;100006.44;;;2.50;100.00
32109;BME280;18624;50.042;8.436;2022-11-20T07:11:41;100007.97;;;2.51;100.00
32109;BME280;18624;50.042;8.436;2022-11-20T07:14:07;100003.72;;;2.50;100.00
32109;BME280;18624;50.042;8.436;2022-11-20T07:16:33;100001.81;;;2.51;100.00
32109;BME280;18624;50.042;8.436;2022-11-20T07:19:00;100007.19;;;2.47;100.00
32109;BME280;18624;50.042;8.436;2022-11-20T07:21:26;100001.38;;;2.38;100.00
32109;BME280;18624;50.042;8.436;2022-11-20T07:23:53;100002.94;;;2.43;100.00
32109;BME280;18624;50.042;8.436;2022-11-20T07:26:19;100004.88;;;2.46;100.00
32109;BME280;18624;50.042;8.436;2022-11-20T07:28:46;100011.06;;;2.46;100.00
32109;BME280;18624;50.042;8.436;2022-11-20T07:31:12;100009.91;;;2.47;100.00
32109;BME280;18624;50.042;8.436;2022-11-20T07:33:44;100011.06;;;2.50;100.00
32109;BME280;18624;50.042;8.436;2022-11-20T07:36:10;100002.56;;;2.51;100.00
32109;BME280;18624;50.042;8.436;2022-11-20T07:38:37;99951.09;;;2.19;100.00
32109;BME280;18624;50.042;8.436;2022-11-20T07:41:04;100007.22;;;2.54;100.00
32109;BME280;18624;50.042;8.436;2022-11-20T07:43:30;100010.31;;;2.57;100.00
32109;BME280;18624;50.042;8.436;2022-11-20T07:46:02;100003.38;;;2.59;100.00
32109;BME280;18624;50.042;8.436;2022-11-20T07:48:30;99999.50;;;2.57;100.00
32109;BME280;18624;50.042;8.436;2022-11-20T07:50:56;100013.00;;;2.57;100.00
32109;BME280;18624;50.042;8.436;2022-11-20T07:53:23;100010.31;;;2.60;100.00
32109;BME280;18624;50.042;8.436;2022-11-20T07:55:50;100010.31;;;2.57;100.00
32109;BME280;18624;50.042;8.436;2022-11-20T07:58:19;100014.97;;;2.60;100.00
32109;BME280;18624;50.042;8.436;2022-11-20T08:00:46;100015.38;;;2.62;100.00
32109;BME280;18624;50.042;8.436;2022-11-20T08:03:13;100012.66;;;2.58;100.00
32109;BME280;18624;50.042;8.436;2022-11-20T08:05:39;100021.56;;;2.66;100.00
32109;BME280;18624;50.042;8.436;2022-11-20T08:08:06;100021.94;;;2.68;100.00
32109;BME280;18624;50.042;8.436;2022-11-20T08:10:33;100022.72;;;2.72;100.00
32109;BME280;18624;50.042;8.436;2022-11-20T08:13:00;100031.63;;;2.72;100.00
32109;BME280;18624;50.042;8.436;2022-11-20T08:15:49;100034.72;;;2.74;100.00
32109;BME280;18624;50.042;8.436;2022-11-20T08:18:18;100035.50;;;2.78;100.00
32109;BME280;18624;50.042;8.436;2022-11-20T08:21:03;100031.25;;;2.77;100.00
32109;BME280;18624;50.042;8.436;2022-11-20T08:23:30;100031.25;;;2.81;100.00
32109;BME280;18624;50.042;8.436;2022-11-20T08:25:57;100032.03;;;2.85;100.00
32109;BME280;18624;50.042;8.436;2022-11-20T08:28:23;100033.19;;;2.88;100.00
32109;BME280;18624;50.042;8.436;2022-11-20T08:30:50;100041.72;;;2.93;100.00
32109;BME280;18624;50.042;8.436;2022-11-20T08:33:17;100042.13;;;2.99;100.00
32109;BME280;18624;50.042;8.436;2022-11-20T08:35:44;100037.09;;;3.04;100.00
32109;BME280;18624;50.042;8.436;2022-11-20T08:38:10;100044.81;;;3.06;100.00
32109;BME280;18624;50.042;8.436;2022-11-20T08:40:37;100048.31;;;3.10;100.00
32109;BME280;18624;50.042;8.436;2022-11-20T08:43:03;100039.81;;;3.12;100.00
32109;BME280;18624;50.042;8.436;2022-11-20T08:45:30;100051.41;;;3.12;100.00
32109;BME280;18624;50.042;8.436;2022-11-20T08:48:01;100051.78;;;3.14;100.00
32109;BME280;18624;50.042;8.436;2022-11-20T08:50:28;100055.28;;;3.18;100.00
32109;BME280;18624;50.042;8.436;2022-11-20T08:53:05;100045.63;;;3.21;100.00
32109;BME280;18624;50.042;8.436;2022-11-20T08:55:32;100035.19;;;3.26;100.00
32109;BME280;18624;50.042;8.436;2022-11-20T08:58:03;100039.06;;;3.29;100.00
32109;BME280;18624;50.042;8.436;2022-11-20T09:00:30;100046.78;;;3.34;100.00
32109;BME280;18624;50.042;8.436;2022-11-20T09:02:56;100044.06;;;3.38;100.00
32109;BME280;18624;50.042;8.436;2022-11-20T09:05:24;100057.63;;;3.41;100.00
32109;BME280;18624;50.042;8.436;2022-11-20T09:07:51;100061.88;;;3.42;100.00
32109;BME280;18624;50.042;8.436;2022-11-20T09:10:17;100058.78;;;3.44;100.00
32109;BME280;18624;50.042;8.436;2022-11-20T09:12:52;100063.44;;;3.47;100.00
32109;BME280;18624;50.042;8.436;2022-11-20T09:15:19;100065.34;;;3.50;100.00
32109;BME280;18624;50.042;8.436;2022-11-20T09:17:52;100055.69;;;3.52;100.00
32109;BME280;18624;50.042;8.436;2022-11-20T09:20:19;100050.25;;;3.49;100.00
32109;BME280;18624;50.042;8.436;2022-11-20T09:22:46;100053.75;;;3.49;100.00
32109;BME280;18624;50.042;8.436;2022-11-20T09:25:13;100056.47;;;3.53;100.00
32109;BME280;18624;50.042;8.436;2022-11-20T09:27:39;100055.28;;;3.54;100.00
32109;BME280;18624;50.042;8.436;2022-11-20T09:30:07;100061.88;;;3.57;100.00
32109;BME280;18624;50.042;8.436;2022-11-20T09:32:34;100051.81;;;3.57;100.00
32109;BME280;18624;50.042;8.436;2022-11-20T09:35:02;100056.06;;;3.58;100.00
32109;BME280;18624;50.042;8.436;2022-11-20T09:37:28;100051.41;;;3.59;100.00
32109;BME280;18624;50.042;8.436;2022-11-20T09:39:55;100051.81;;;3.61;100.00
32109;BME280;18624;50.042;8.436;2022-11-20T09:42:45;100059.16;;;3.64;100.00
32109;BME280;18624;50.042;8.436;2022-11-20T09:45:58;100052.97;;;3.67;100.00
32109;BME280;18624;50.042;8.436;2022-11-20T09:54:15;100008.06;;;3.44;100.00
32109;BME280;18624;50.042;8.436;2022-11-20T09:56:45;100049.84;;;3.72;100.00
32109;BME280;18624;50.042;8.436;2022-11-20T09:59:37;100049.09;;;3.71;100.00
32109;BME280;18624;50.042;8.436;2022-11-20T10:07:41;100045.97;;;3.76;100.00
32109;BME280;18624;50.042;8.436;2022-11-20T10:10:40;100042.09;;;3.77;100.00
32109;BME280;18624;50.042;8.436;2022-11-20T10:16:33;100047.16;;;3.79;100.00
32109;BME280;18624;50.042;8.436;2022-11-20T10:19:44;100044.81;;;3.81;100.00
32109;BME280;18624;50.042;8.436;2022-11-20T10:25:20;100039.78;;;3.83;100.00
32109;BME280;18624;50.042;8.436;2022-11-20T10:27:56;100037.06;;;3.83;100.00
32109;BME280;18624;50.042;8.436;2022-11-20T10:30:26;100025.06;;;3.84;100.00
32109;BME280;18624;50.042;8.436;2022-11-20T10:33:18;100022.72;;;3.83;100.00
32109;BME280;18624;50.042;8.436;2022-11-20T10:35:55;99982.13;;;3.61;100.00
32109;BME280;18624;50.042;8.436;2022-11-20T10:38:48;100002.19;;;3.81;100.00
32109;BME280;18624;50.042;8.436;2022-11-20T10:41:24;100008.03;;;3.73;100.00
32109;BME280;18624;50.042;8.436;2022-11-20T10:43:56;100004.94;;;3.71;100.00
32109;BME280;18624;50.042;8.436;2022-11-20T10:46:25;99989.09;;;3.59;100.00
32109;BME280;18624;50.042;8.436;2022-11-20T10:48:52;99997.22;;;3.66;100.00
32109;BME280;18624;50.042;8.436;2022-11-20T10:51:34;99987.53;;;3.61;100.00
32109;BME280;18624;50.042;8.436;2022-11-20T10:54:22;99997.97;;;3.70;100.00
32109;BME280;18624;50.042;8.436;2022-11-20T10:56:53;99995.28;;;3.70;100.00
32109;BME280;18624;50.042;8.436;2022-11-20T10:59:30;99991.00;;;3.72;100.00
32109;BME280;18624;50.042;8.436;2022-11-20T11:02:01;100001.81;;;3.76;100.00
32109;BME280;18624;50.042;8.436;2022-11-20T11:04:43;100002.59;;;3.80;100.00
32109;BME280;18624;50.042;8.436;2022-11-20T11:07:22;99961.22;;;3.58;100.00
32109;BME280;18624;50.042;8.436;2022-11-20T11:09:54;99966.63;;;3.62;100.00
32109;BME280;18624;50.042;8.436;2022-11-20T11:12:25;99993.28;;;3.85;100.00
32109;BME280;18624;50.042;8.436;2022-11-20T11:14:53;99995.59;;;3.86;100.00
32109;BME280;18624;50.042;8.436;2022-11-20T11:17:26;99994.81;;;3.89;100.00
32109;BME280;18624;50.042;8.436;2022-11-20T11:20:00;99983.19;;;3.92;100.00
32109;BME280;18624;50.042;8.436;2022-11-20T11:22:31;99987.44;;;3.97;100.00
32109;BME280;18624;50.042;8.436;2022-11-20T11:24:59;99983.56;;;4.01;100.00
32109;BME280;18624;50.042;8.436;2022-11-20T11:27:26;99968.06;;;3.95;100.00
32109;BME280;18624;50.042;8.436;2022-11-20T11:30:28;99986.63;;;4.07;100.00
32109;BME280;18624;50.042;8.436;2022-11-20T11:33:04;99827.03;;;3.11;100.00
32109;BME280;18624;50.042;8.436;2022-11-20T11:35:32;99971.50;;;4.10;100.00
32109;BME280;18624;50.042;8.436;2022-11-20T11:38:04;99955.25;;;4.02;100.00
32109;BME280;18624;50.042;8.436;2022-11-20T11:40:35;99971.13;;;4.11;100.00
32109;BME280;18624;50.042;8.436;2022-11-20T11:43:17;99976.53;;;4.15;100.00
32109;BME280;18624;50.042;8.436;2022-11-20T11:46:23;99973.78;;;4.18;100.00
32109;BME280;18624;50.042;8.436;2022-11-20T11:48:59;99969.88;;;4.23;100.00
32109;BME280;18624;50.042;8.436;2022-11-20T11:51:36;99957.50;;;4.22;100.00
32109;BME280;18624;50.042;8.436;2022-11-20T11:54:14;99964.47;;;4.23;100.00
32109;BME280;18624;50.042;8.436;2022-11-20T11:56:43;99938.16;;;4.16;100.00
32109;BME280;18624;50.042;8.436;2022-11-20T11:59:16;99951.31;;;4.18;100.00
32109;BME280;18624;50.042;8.436;2022-11-20T12:01:54;99945.13;;;4.17;100.00
32109;BME280;18624;50.042;8.436;2022-11-20T12:04:46;99943.19;;;4.18;100.00
32109;BME280;18624;50.042;8.436;2022-11-20T12:07:36;99938.16;;;4.20;100.00
32109;BME280;18624;50.042;8.436;2022-11-20T12:10:19;99943.56;;;4.23;100.00
32109;BME280;18624;50.042;8.436;2022-11-20T12:13:02;99946.63;;;4.29;100.00
32109;BME280;18624;50.042;8.436;2022-11-20T12:15:33;99943.09;;;4.32;100.00
32109;BME280;18624;50.042;8.436;2022-11-20T12:18:00;99935.00;;;4.28;100.00
32109;BME280;18624;50.042;8.436;2022-11-20T12:20:35;99937.72;;;4.28;100.00
32109;BME280;18624;50.042;8.436;2022-11-20T12:23:18;99929.19;;;4.26;100.00
32109;BME280;18624;50.042;8.436;2022-11-20T12:25:54;99926.09;;;4.28;100.00
32109;BME280;18624;50.042;8.436;2022-11-20T12:34:35;99931.09;;;4.29;100.00
32109;BME280;18624;50.042;8.436;2022-11-20T12:40:15;99933.84;;;4.26;100.00
32109;BME280;18624;50.042;8.436;2022-11-20T12:43:11;99928.00;;;4.27;100.00
32109;BME280;18624;50.042;8.436;2022-11-20T12:49:09;99921.81;;;4.27;100.00
32109;BME280;18624;50.042;8.436;2022-11-20T12:51:50;99925.69;;;4.29;100.00
32109;BME280;18624;50.042;8.436;2022-11-20T12:54:41;99883.19;;;4.05;100.00
32109;BME280;18624;50.042;8.436;2022-11-20T12:57:24;99917.13;;;4.35;100.00
32109;BME280;18624;50.042;8.436;2022-11-20T13:08:29;99907.00;;;4.42;100.00
32109;BME280;18624;50.042;8.436;2022-11-20T13:11:09;99902.34;;;4.43;100.00
32109;BME280;18624;50.042;8.436;2022-11-20T13:14:00;99863.72;;;4.21;100.00
32109;BME280;18624;50.042;8.436;2022-11-20T13:19:04;99879.47;;;4.44;100.00
32109;BME280;18624;50.042;8.436;2022-11-20T13:21:45;99891.44;;;4.50;100.00
32109;BME280;18624;50.042;8.436;2022-11-20T13:26:46;99890.28;;;4.51;100.00
32109;BME280;18624;50.042;8.436;2022-11-20T13:29:19;99882.91;;;4.51;100.00
32109;BME280;18624;50.042;8.436;2022-11-20T13:31:47;99877.47;;;4.51;100.00
32109;BME280;18624;50.042;8.436;2022-11-20T13:34:24;99872.84;;;4.45;100.00
32109;BME280;18624;50.042;8.436;2022-11-20T13:36:53;99878.25;;;4.52;100.00
32109;BME280;18624;50.042;8.436;2022-11-20T13:39:28;99874.34;;;4.53;100.00
32109;BME280;18624;50.042;8.436;2022-11-20T13:44:48;99878.19;;;4.59;100.00
32109;BME280;18624;50.042;8.436;2022-11-20T13:47:25;99746.66;;;3.74;100.00
32109;BME280;18624;50.042;8.436;2022-11-20T13:49:52;99865.75;;;4.65;100.00
32109;BME280;18624;50.042;8.436;2022-11-20T13:52:36;99857.19;;;4.67;100.00
32109;BME280;18624;50.042;8.436;2022-11-20T14:00:11;99851.75;;;4.67;100.00
32109;BME280;18624;50.042;8.436;2022-11-20T14:02:40;99845.56;;;4.66;100.00